sensor_id;sensor_type;location;lat;lon;timestamp;P1;durP1;ratioP1;P2;durP2;ratioP2
49738;SDS011;53662;50.114;8.626;2022-10-31T00:01:01;19.52;;;11.23;;
49738;SDS011;53662;50.114;8.626;2022-10-31T00:03:27;24.98;;;11.63;;
49738;SDS011;53662;50.114;8.626;2022-10-31T00:05:53;23.02;;;11.45;;
49738;SDS011;53662;50.114;8.626;2022-10-31T00:08:19;21.65;;;10.63;;
49738;SDS011;53662;50.114;8.626;2022-10-31T00:10:45;29.90;;;11.85;;
49738;SDS011;53662;50.114;8.626;2022-10-31T00:13:12;30.52;;;12.57;;
49738;SDS011;53662;50.114;8.626;2022-10-31T00:15:39;18.85;;;11.07;;
49738;SDS011;53662;50.114;8.626;2022-10-31T00:18:06;23.75;;;11.45;;
49738;SDS011;53662;50.114;8.626;2022-10-31T00:20:32;22.27;;;10.23;;
49738;SDS011;53662;50.114;8.626;2022-10-31T00:22:59;23.83;;;11.18;;
49738;SDS011;53662;50.114;8.626;2022-10-31T00:25:25;16.08;;;10.63;;
49738;SDS011;53662;50.114;8.626;2022-10-31T00:27:51;21.75;;;11.00;;
49738;SDS011;53662;50.114;8.626;2022-10-31T00:30:17;28.25;;;11.25;;
49738;SDS011;53662;50.114;8.626;2022-10-31T00:32:43;20.10;;;10.80;;
49738;SDS011;53662;50.114;8.626;2022-10-31T00:35:09;22.38;;;11.30;;
49738;SDS011;53662;50.114;8.626;2022-10-31T00:37:35;21.83;;;12.23;;
49738;SDS011;53662;50.114;8.626;2022-10-31T00:40:01;27.67;;;12.18;;
49738;SDS011;53662;50.114;8.626;2022-10-31T00:42:27;22.05;;;11.00;;
49738;SDS011;53662;50.114;8.626;2022-10-31T00:44:52;21.92;;;10.82;;
49738;SDS011;53662;50.114;8.626;2022-10-31T00:47:18;19.80;;;10.85;;
49738;SDS011;53662;50.114;8.626;2022-10-31T00:49:44;23.10;;;11.20;;
49738;SDS011;53662;50.114;8.626;2022-10-31T00:52:10;22.05;;;11.25;;
49738;SDS011;53662;50.114;8.626;2022-10-31T00:54:36;21.33;;;12.10;;
49738;SDS011;53662;50.114;8.626;2022-10-31T00:57:02;21.50;;;11.18;;
49738;SDS011;53662;50.114;8.626;2022-10-31T00:59:28;20.48;;;10.60;;
49738;SDS011;53662;50.114;8.626;2022-10-31T01:01:54;21.45;;;10.10;;
49738;SDS011;53662;50.114;8.626;2022-10-31T01:04:20;19.83;;;9.95;;
49738;SDS011;53662;50.114;8.626;2022-10-31T01:06:46;21.00;;;9.70;;
49738;SDS011;53662;50.114;8.626;2022-10-31T01:09:12;17.75;;;9.25;;
49738;SDS011;53662;50.114;8.626;2022-10-31T01:11:38;26.17;;;9.13;;
49738;SDS011;53662;50.114;8.626;2022-10-31T01:14:04;19.70;;;8.52;;
49738;SDS011;53662;50.114;8.626;2022-10-31T01:16:30;19.50;;;10.43;;
49738;SDS011;53662;50.114;8.626;2022-10-31T01:18:56;22.67;;;10.13;;
49738;SDS011;53662;50.114;8.626;2022-10-31T01:21:23;19.20;;;9.18;;
49738;SDS011;53662;50.114;8.626;2022-10-31T01:23:49;19.23;;;9.63;;
49738;SDS011;53662;50.114;8.626;2022-10-31T01:26:19;18.10;;;8.98;;
49738;SDS011;53662;50.114;8.626;2022-10-31T01:28:46;12.63;;;8.50;;
49738;SDS011;53662;50.114;8.626;2022-10-31T01:31:13;11.75;;;8.88;;
49738;SDS011;53662;50.114;8.626;2022-10-31T01:33:39;18.13;;;8.50;;
49738;SDS011;53662;50.114;8.626;2022-10-31T01:36:15;11.63;;;8.63;;
49738;SDS011;53662;50.114;8.626;2022-10-31T01:38:41;27.45;;;8.63;;
49738;SDS011;53662;50.114;8.626;2022-10-31T01:41:08;13.45;;;7.43;;
49738;SDS011;53662;50.114;8.626;2022-10-31T01:43:41;21.90;;;9.18;;
49738;SDS011;53662;50.114;8.626;2022-10-31T01:46:07;19.15;;;8.27;;
49738;SDS011;53662;50.114;8.626;2022-10-31T01:48:33;16.80;;;7.63;;
49738;SDS011;53662;50.114;8.626;2022-10-31T01:50:59;13.38;;;7.85;;
49738;SDS011;53662;50.114;8.626;2022-10-31T01:53:25;16.45;;;8.65;;
49738;SDS011;53662;50.114;8.626;2022-10-31T01:55:51;11.65;;;7.93;;
49738;SDS011;53662;50.114;8.626;2022-10-31T01:58:22;26.77;;;8.05;;
49738;SDS011;53662;50.114;8.626;2022-10-31T02:00:49;12.10;;;7.97;;
49738;SDS011;53662;50.114;8.626;2022-10-31T02:03:17;15.18;;;8.15;;
49738;SDS011;53662;50.114;8.626;2022-10-31T02:05:44;12.27;;;8.13;;
49738;SDS011;53662;50.114;8.626;2022-10-31T02:08:14;14.35;;;8.40;;
49738;SDS011;53662;50.114;8.626;2022-10-31T02:10:42;16.23;;;8.63;;
49738;SDS011;53662;50.114;8.626;2022-10-31T02:13:09;21.15;;;8.82;;
49738;SDS011;53662;50.114;8.626;2022-10-31T02:15:37;26.65;;;8.50;;
49738;SDS011;53662;50.114;8.626;2022-10-31T02:18:03;12.93;;;8.30;;
49738;SDS011;53662;50.114;8.626;2022-10-31T02:20:42;17.15;;;7.85;;
49738;SDS011;53662;50.114;8.626;2022-10-31T02:23:33;15.93;;;7.97;;
49738;SDS011;53662;50.114;8.626;2022-10-31T02:26:12;18.83;;;8.98;;
49738;SDS011;53662;50.114;8.626;2022-10-31T02:33:43;12.63;;;7.07;;
49738;SDS011;53662;50.114;8.626;2022-10-31T02:36:20;22.92;;;7.90;;
49738;SDS011;53662;50.114;8.626;2022-10-31T02:38:52;10.98;;;7.25;;
49738;SDS011;53662;50.114;8.626;2022-10-31T02:41:26;13.23;;;7.78;;
49738;SDS011;53662;50.114;8.626;2022-10-31T02:46:21;14.52;;;7.53;;
49738;SDS011;53662;50.114;8.626;2022-10-31T02:48:50;14.25;;;7.97;;
49738;SDS011;53662;50.114;8.626;2022-10-31T02:51:18;19.45;;;7.88;;
49738;SDS011;53662;50.114;8.626;2022-10-31T02:53:45;19.70;;;8.48;;
49738;SDS011;53662;50.114;8.626;2022-10-31T02:56:18;18.73;;;8.30;;
49738;SDS011;53662;50.114;8.626;2022-10-31T02:58:49;9.18;;;7.22;;
49738;SDS011;53662;50.114;8.626;2022-10-31T03:01:20;15.63;;;7.95;;
49738;SDS011;53662;50.114;8.626;2022-10-31T03:04:00;16.58;;;8.32;;
49738;SDS011;53662;50.114;8.626;2022-10-31T03:06:45;16.35;;;8.15;;
49738;SDS011;53662;50.114;8.626;2022-10-31T03:14:12;19.52;;;7.93;;
49738;SDS011;53662;50.114;8.626;2022-10-31T03:16:45;16.25;;;7.95;;
49738;SDS011;53662;50.114;8.626;2022-10-31T03:19:14;13.07;;;7.93;;
49738;SDS011;53662;50.114;8.626;2022-10-31T03:21:44;13.25;;;8.10;;
49738;SDS011;53662;50.114;8.626;2022-10-31T03:24:11;15.43;;;7.40;;
49738;SDS011;53662;50.114;8.626;2022-10-31T03:26:38;19.80;;;7.50;;
49738;SDS011;53662;50.114;8.626;2022-10-31T03:29:06;14.90;;;8.25;;
49738;SDS011;53662;50.114;8.626;2022-10-31T03:31:34;12.77;;;7.53;;
49738;SDS011;53662;50.114;8.626;2022-10-31T03:34:02;14.68;;;7.53;;
49738;SDS011;53662;50.114;8.626;2022-10-31T03:36:29;11.13;;;7.65;;
49738;SDS011;53662;50.114;8.626;2022-10-31T03:38:57;13.30;;;8.18;;
49738;SDS011;53662;50.114;8.626;2022-10-31T03:41:25;10.80;;;8.27;;
49738;SDS011;53662;50.114;8.626;2022-10-31T03:43:55;15.65;;;7.60;;
49738;SDS011;53662;50.114;8.626;2022-10-31T03:46:23;18.13;;;8.57;;
49738;SDS011;53662;50.114;8.626;2022-10-31T03:48:49;12.20;;;7.68;;
49738;SDS011;53662;50.114;8.626;2022-10-31T03:53:55;14.88;;;8.05;;
49738;SDS011;53662;50.114;8.626;2022-10-31T03:56:34;19.98;;;7.28;;
49738;SDS011;53662;50.114;8.626;2022-10-31T03:59:05;11.43;;;7.15;;
49738;SDS011;53662;50.114;8.626;2022-10-31T04:01:32;10.73;;;7.65;;
49738;SDS011;53662;50.114;8.626;2022-10-31T04:04:00;23.25;;;9.10;;
49738;SDS011;53662;50.114;8.626;2022-10-31T04:06:26;12.95;;;7.60;;
49738;SDS011;53662;50.114;8.626;2022-10-31T04:09:00;15.02;;;8.20;;
49738;SDS011;53662;50.114;8.626;2022-10-31T04:11:28;7.85;;;7.05;;
49738;SDS011;53662;50.114;8.626;2022-10-31T04:13:55;17.30;;;7.80;;
49738;SDS011;53662;50.114;8.626;2022-10-31T04:16:22;17.40;;;7.30;;
49738;SDS011;53662;50.114;8.626;2022-10-31T04:18:48;20.77;;;7.78;;
49738;SDS011;53662;50.114;8.626;2022-10-31T04:21:14;20.23;;;7.72;;
49738;SDS011;53662;50.114;8.626;2022-10-31T04:23:41;13.63;;;7.57;;
49738;SDS011;53662;50.114;8.626;2022-10-31T04:26:08;16.95;;;7.57;;
49738;SDS011;53662;50.114;8.626;2022-10-31T04:28:36;13.30;;;7.20;;
49738;SDS011;53662;50.114;8.626;2022-10-31T04:31:02;14.52;;;7.25;;
49738;SDS011;53662;50.114;8.626;2022-10-31T04:33:28;15.75;;;7.97;;
49738;SDS011;53662;50.114;8.626;2022-10-31T04:35:54;26.95;;;8.55;;
49738;SDS011;53662;50.114;8.626;2022-10-31T04:38:20;19.70;;;8.35;;
49738;SDS011;53662;50.114;8.626;2022-10-31T04:40:45;15.70;;;8.20;;
49738;SDS011;53662;50.114;8.626;2022-10-31T04:43:11;17.40;;;7.88;;
49738;SDS011;53662;50.114;8.626;2022-10-31T04:45:37;19.58;;;8.05;;
49738;SDS011;53662;50.114;8.626;2022-10-31T04:48:03;13.45;;;7.97;;
49738;SDS011;53662;50.114;8.626;2022-10-31T04:50:29;11.30;;;7.95;;
49738;SDS011;53662;50.114;8.626;2022-10-31T04:52:55;14.77;;;8.10;;
49738;SDS011;53662;50.114;8.626;2022-10-31T04:55:21;13.60;;;7.03;;
49738;SDS011;53662;50.114;8.626;2022-10-31T04:57:48;13.27;;;7.57;;
49738;SDS011;53662;50.114;8.626;2022-10-31T05:00:15;11.18;;;7.25;;
49738;SDS011;53662;50.114;8.626;2022-10-31T05:02:48;14.85;;;8.00;;
49738;SDS011;53662;50.114;8.626;2022-10-31T05:05:15;11.30;;;7.97;;
49738;SDS011;53662;50.114;8.626;2022-10-31T05:07:44;16.80;;;7.88;;
49738;SDS011;53662;50.114;8.626;2022-10-31T05:10:11;15.02;;;6.85;;
49738;SDS011;53662;50.114;8.626;2022-10-31T05:12:37;9.65;;;6.57;;
49738;SDS011;53662;50.114;8.626;2022-10-31T05:15:04;11.02;;;6.82;;
49738;SDS011;53662;50.114;8.626;2022-10-31T05:17:31;13.13;;;6.93;;
49738;SDS011;53662;50.114;8.626;2022-10-31T05:19:57;18.98;;;7.53;;
49738;SDS011;53662;50.114;8.626;2022-10-31T05:22:23;15.43;;;8.10;;
49738;SDS011;53662;50.114;8.626;2022-10-31T05:24:48;12.00;;;7.45;;
49738;SDS011;53662;50.114;8.626;2022-10-31T05:27:14;12.52;;;8.00;;
49738;SDS011;53662;50.114;8.626;2022-10-31T05:29:40;12.70;;;7.68;;
49738;SDS011;53662;50.114;8.626;2022-10-31T05:32:06;22.75;;;7.85;;
49738;SDS011;53662;50.114;8.626;2022-10-31T05:34:32;15.75;;;7.43;;
49738;SDS011;53662;50.114;8.626;2022-10-31T05:36:58;11.98;;;7.25;;
49738;SDS011;53662;50.114;8.626;2022-10-31T05:39:24;18.45;;;7.78;;
49738;SDS011;53662;50.114;8.626;2022-10-31T05:41:50;10.50;;;7.30;;
49738;SDS011;53662;50.114;8.626;2022-10-31T05:44:16;10.50;;;7.70;;
49738;SDS011;53662;50.114;8.626;2022-10-31T05:46:42;13.77;;;8.00;;
49738;SDS011;53662;50.114;8.626;2022-10-31T05:49:08;19.27;;;7.35;;
49738;SDS011;53662;50.114;8.626;2022-10-31T05:51:34;12.32;;;7.97;;
49738;SDS011;53662;50.114;8.626;2022-10-31T05:54:00;13.55;;;7.28;;
49738;SDS011;53662;50.114;8.626;2022-10-31T05:56:26;11.38;;;7.40;;
49738;SDS011;53662;50.114;8.626;2022-10-31T05:58:51;17.23;;;7.68;;
49738;SDS011;53662;50.114;8.626;2022-10-31T06:01:17;11.75;;;7.60;;
49738;SDS011;53662;50.114;8.626;2022-10-31T06:03:43;13.07;;;7.47;;
49738;SDS011;53662;50.114;8.626;2022-10-31T06:06:09;12.73;;;7.78;;
49738;SDS011;53662;50.114;8.626;2022-10-31T06:08:35;13.13;;;6.00;;
49738;SDS011;53662;50.114;8.626;2022-10-31T06:11:02;14.70;;;8.18;;
49738;SDS011;53662;50.114;8.626;2022-10-31T06:13:28;13.52;;;7.95;;
49738;SDS011;53662;50.114;8.626;2022-10-31T06:15:53;11.82;;;8.27;;
49738;SDS011;53662;50.114;8.626;2022-10-31T06:18:19;12.25;;;8.80;;
49738;SDS011;53662;50.114;8.626;2022-10-31T06:20:45;11.52;;;8.38;;
49738;SDS011;53662;50.114;8.626;2022-10-31T06:23:11;23.77;;;9.50;;
49738;SDS011;53662;50.114;8.626;2022-10-31T06:25:37;14.88;;;9.30;;
49738;SDS011;53662;50.114;8.626;2022-10-31T06:28:03;13.38;;;8.50;;
49738;SDS011;53662;50.114;8.626;2022-10-31T06:30:30;22.75;;;8.85;;
49738;SDS011;53662;50.114;8.626;2022-10-31T06:33:01;19.48;;;9.68;;
49738;SDS011;53662;50.114;8.626;2022-10-31T06:35:27;26.75;;;9.45;;
49738;SDS011;53662;50.114;8.626;2022-10-31T06:37:53;24.15;;;9.98;;
49738;SDS011;53662;50.114;8.626;2022-10-31T06:40:19;19.55;;;9.18;;
49738;SDS011;53662;50.114;8.626;2022-10-31T06:42:45;14.95;;;8.80;;
49738;SDS011;53662;50.114;8.626;2022-10-31T06:45:11;13.18;;;8.00;;
49738;SDS011;53662;50.114;8.626;2022-10-31T06:47:37;12.82;;;7.68;;
49738;SDS011;53662;50.114;8.626;2022-10-31T06:50:03;20.13;;;9.13;;
49738;SDS011;53662;50.114;8.626;2022-10-31T06:52:29;20.13;;;9.85;;
49738;SDS011;53662;50.114;8.626;2022-10-31T06:54:55;14.70;;;9.05;;
49738;SDS011;53662;50.114;8.626;2022-10-31T06:57:20;9.90;;;8.00;;
49738;SDS011;53662;50.114;8.626;2022-10-31T06:59:46;12.55;;;8.93;;
49738;SDS011;53662;50.114;8.626;2022-10-31T07:02:12;13.25;;;7.88;;
49738;SDS011;53662;50.114;8.626;2022-10-31T07:04:38;21.02;;;9.40;;
49738;SDS011;53662;50.114;8.626;2022-10-31T07:07:04;18.02;;;8.93;;
49738;SDS011;53662;50.114;8.626;2022-10-31T07:09:30;19.70;;;10.50;;
49738;SDS011;53662;50.114;8.626;2022-10-31T07:11:56;20.92;;;8.60;;
49738;SDS011;53662;50.114;8.626;2022-10-31T07:14:22;16.60;;;6.47;;
49738;SDS011;53662;50.114;8.626;2022-10-31T07:16:49;14.10;;;5.88;;
49738;SDS011;53662;50.114;8.626;2022-10-31T07:19:15;32.72;;;8.68;;
49738;SDS011;53662;50.114;8.626;2022-10-31T07:21:41;27.15;;;9.32;;
49738;SDS011;53662;50.114;8.626;2022-10-31T07:24:07;15.07;;;9.25;;
49738;SDS011;53662;50.114;8.626;2022-10-31T07:26:33;16.08;;;9.05;;
49738;SDS011;53662;50.114;8.626;2022-10-31T07:28:59;23.63;;;9.95;;
49738;SDS011;53662;50.114;8.626;2022-10-31T07:31:25;16.67;;;9.38;;
49738;SDS011;53662;50.114;8.626;2022-10-31T07:33:51;15.88;;;9.57;;
49738;SDS011;53662;50.114;8.626;2022-10-31T07:36:19;16.70;;;9.73;;
49738;SDS011;53662;50.114;8.626;2022-10-31T07:38:45;26.45;;;10.20;;
49738;SDS011;53662;50.114;8.626;2022-10-31T07:41:11;30.40;;;10.43;;
49738;SDS011;53662;50.114;8.626;2022-10-31T07:43:37;22.83;;;10.55;;
49738;SDS011;53662;50.114;8.626;2022-10-31T07:46:03;19.67;;;11.02;;
49738;SDS011;53662;50.114;8.626;2022-10-31T07:48:29;17.65;;;10.55;;
49738;SDS011;53662;50.114;8.626;2022-10-31T07:50:55;19.83;;;9.88;;
49738;SDS011;53662;50.114;8.626;2022-10-31T07:53:21;24.83;;;10.85;;
49738;SDS011;53662;50.114;8.626;2022-10-31T07:55:47;16.77;;;9.77;;
49738;SDS011;53662;50.114;8.626;2022-10-31T07:58:14;22.63;;;10.77;;
49738;SDS011;53662;50.114;8.626;2022-10-31T08:00:41;25.25;;;10.55;;
49738;SDS011;53662;50.114;8.626;2022-10-31T08:03:09;26.88;;;10.10;;
49738;SDS011;53662;50.114;8.626;2022-10-31T08:05:35;21.13;;;10.13;;
49738;SDS011;53662;50.114;8.626;2022-10-31T08:08:01;15.65;;;9.63;;
49738;SDS011;53662;50.114;8.626;2022-10-31T08:10:27;14.40;;;9.20;;
49738;SDS011;53662;50.114;8.626;2022-10-31T08:12:57;17.67;;;9.02;;
49738;SDS011;53662;50.114;8.626;2022-10-31T08:15:24;19.20;;;9.07;;
49738;SDS011;53662;50.114;8.626;2022-10-31T08:17:50;13.98;;;9.38;;
49738;SDS011;53662;50.114;8.626;2022-10-31T08:20:17;15.70;;;9.55;;
49738;SDS011;53662;50.114;8.626;2022-10-31T08:22:51;19.38;;;9.80;;
49738;SDS011;53662;50.114;8.626;2022-10-31T08:25:17;20.52;;;9.52;;
49738;SDS011;53662;50.114;8.626;2022-10-31T08:27:47;15.82;;;9.32;;
49738;SDS011;53662;50.114;8.626;2022-10-31T08:30:13;15.88;;;8.90;;
49738;SDS011;53662;50.114;8.626;2022-10-31T08:32:39;12.88;;;8.75;;
49738;SDS011;53662;50.114;8.626;2022-10-31T08:35:05;12.52;;;9.23;;
49738;SDS011;53662;50.114;8.626;2022-10-31T08:37:31;14.95;;;8.85;;
49738;SDS011;53662;50.114;8.626;2022-10-31T08:40:00;15.93;;;9.18;;
49738;SDS011;53662;50.114;8.626;2022-10-31T08:42:26;19.33;;;9.57;;
49738;SDS011;53662;50.114;8.626;2022-10-31T08:44:52;12.32;;;8.93;;
49738;SDS011;53662;50.114;8.626;2022-10-31T08:47:18;15.15;;;8.82;;
49738;SDS011;53662;50.114;8.626;2022-10-31T08:49:44;19.95;;;9.73;;
49738;SDS011;53662;50.114;8.626;2022-10-31T08:52:10;18.25;;;8.93;;
49738;SDS011;53662;50.114;8.626;2022-10-31T08:54:36;20.27;;;9.35;;
49738;SDS011;53662;50.114;8.626;2022-10-31T08:57:02;19.38;;;9.63;;
49738;SDS011;53662;50.114;8.626;2022-10-31T08:59:28;13.25;;;9.32;;
49738;SDS011;53662;50.114;8.626;2022-10-31T09:01:54;13.80;;;9.10;;
49738;SDS011;53662;50.114;8.626;2022-10-31T09:04:20;18.65;;;9.50;;
49738;SDS011;53662;50.114;8.626;2022-10-31T09:06:46;20.27;;;9.35;;
49738;SDS011;53662;50.114;8.626;2022-10-31T09:09:11;14.50;;;9.65;;
49738;SDS011;53662;50.114;8.626;2022-10-31T09:11:37;17.95;;;10.38;;
49738;SDS011;53662;50.114;8.626;2022-10-31T09:14:03;24.20;;;10.82;;
49738;SDS011;53662;50.114;8.626;2022-10-31T09:16:29;22.23;;;10.98;;
49738;SDS011;53662;50.114;8.626;2022-10-31T09:18:58;26.45;;;10.73;;
49738;SDS011;53662;50.114;8.626;2022-10-31T09:21:23;20.95;;;10.40;;
49738;SDS011;53662;50.114;8.626;2022-10-31T09:23:49;19.98;;;11.60;;
49738;SDS011;53662;50.114;8.626;2022-10-31T09:26:15;20.40;;;10.93;;
49738;SDS011;53662;50.114;8.626;2022-10-31T09:28:41;24.65;;;12.38;;
49738;SDS011;53662;50.114;8.626;2022-10-31T09:31:09;16.23;;;11.02;;
49738;SDS011;53662;50.114;8.626;2022-10-31T09:33:35;26.48;;;12.18;;
49738;SDS011;53662;50.114;8.626;2022-10-31T09:36:02;21.88;;;11.52;;
49738;SDS011;53662;50.114;8.626;2022-10-31T09:38:28;23.40;;;11.07;;
49738;SDS011;53662;50.114;8.626;2022-10-31T09:43:57;37.08;;;11.98;;
49738;SDS011;53662;50.114;8.626;2022-10-31T09:46:35;22.08;;;11.40;;
49738;SDS011;53662;50.114;8.626;2022-10-31T09:49:12;26.45;;;10.70;;
49738;SDS011;53662;50.114;8.626;2022-10-31T09:51:43;16.38;;;10.25;;
49738;SDS011;53662;50.114;8.626;2022-10-31T09:54:13;35.40;;;12.00;;
49738;SDS011;53662;50.114;8.626;2022-10-31T09:56:40;23.60;;;11.63;;
49738;SDS011;53662;50.114;8.626;2022-10-31T09:59:10;22.00;;;11.95;;
49738;SDS011;53662;50.114;8.626;2022-10-31T10:01:56;22.25;;;12.38;;
49738;SDS011;53662;50.114;8.626;2022-10-31T10:06:50;46.72;;;14.52;;
49738;SDS011;53662;50.114;8.626;2022-10-31T10:09:18;22.23;;;11.35;;
49738;SDS011;53662;50.114;8.626;2022-10-31T10:14:20;22.27;;;12.35;;
49738;SDS011;53662;50.114;8.626;2022-10-31T10:22:22;28.30;;;13.27;;
49738;SDS011;53662;50.114;8.626;2022-10-31T10:30:04;19.70;;;11.98;;
49738;SDS011;53662;50.114;8.626;2022-10-31T10:32:56;28.70;;;13.07;;
49738;SDS011;53662;50.114;8.626;2022-10-31T10:35:30;23.27;;;11.93;;
49738;SDS011;53662;50.114;8.626;2022-10-31T10:37:58;22.27;;;13.13;;
49738;SDS011;53662;50.114;8.626;2022-10-31T10:40:27;25.92;;;12.63;;
49738;SDS011;53662;50.114;8.626;2022-10-31T10:45:44;30.52;;;13.93;;
49738;SDS011;53662;50.114;8.626;2022-10-31T10:50:56;25.55;;;14.88;;
49738;SDS011;53662;50.114;8.626;2022-10-31T10:58:45;26.13;;;14.07;;
49738;SDS011;53662;50.114;8.626;2022-10-31T11:01:11;26.70;;;15.23;;
49738;SDS011;53662;50.114;8.626;2022-10-31T11:03:38;35.22;;;16.75;;
49738;SDS011;53662;50.114;8.626;2022-10-31T11:06:04;39.83;;;15.75;;
49738;SDS011;53662;50.114;8.626;2022-10-31T11:11:41;33.67;;;14.75;;
49738;SDS011;53662;50.114;8.626;2022-10-31T11:13:43;51.25;;;17.05;;
49738;SDS011;53662;50.114;8.626;2022-10-31T11:16:12;25.80;;;15.57;;
49738;SDS011;53662;50.114;8.626;2022-10-31T11:18:39;31.10;;;14.73;;
49738;SDS011;53662;50.114;8.626;2022-10-31T11:21:17;31.90;;;15.48;;
49738;SDS011;53662;50.114;8.626;2022-10-31T11:23:44;239.93;;;22.52;;
49738;SDS011;53662;50.114;8.626;2022-10-31T11:26:18;33.80;;;14.90;;
49738;SDS011;53662;50.114;8.626;2022-10-31T11:28:44;31.20;;;15.00;;
49738;SDS011;53662;50.114;8.626;2022-10-31T11:31:21;28.08;;;14.80;;
49738;SDS011;53662;50.114;8.626;2022-10-31T11:33:48;28.05;;;15.13;;
49738;SDS011;53662;50.114;8.626;2022-10-31T11:36:20;28.55;;;14.10;;
49738;SDS011;53662;50.114;8.626;2022-10-31T11:38:46;26.17;;;13.30;;
49738;SDS011;53662;50.114;8.626;2022-10-31T11:41:17;61.80;;;14.98;;
49738;SDS011;53662;50.114;8.626;2022-10-31T11:43:49;41.63;;;14.82;;
49738;SDS011;53662;50.114;8.626;2022-10-31T11:46:17;36.08;;;14.02;;
49738;SDS011;53662;50.114;8.626;2022-10-31T11:48:50;22.08;;;13.80;;
49738;SDS011;53662;50.114;8.626;2022-10-31T11:51:24;27.13;;;14.13;;
49738;SDS011;53662;50.114;8.626;2022-10-31T11:53:51;23.45;;;12.68;;
49738;SDS011;53662;50.114;8.626;2022-10-31T11:56:17;22.67;;;12.73;;
49738;SDS011;53662;50.114;8.626;2022-10-31T11:58:54;37.15;;;13.18;;
49738;SDS011;53662;50.114;8.626;2022-10-31T12:01:25;18.60;;;11.50;;
49738;SDS011;53662;50.114;8.626;2022-10-31T12:03:54;38.80;;;13.15;;
49738;SDS011;53662;50.114;8.626;2022-10-31T12:06:27;20.75;;;11.52;;
49738;SDS011;53662;50.114;8.626;2022-10-31T12:08:54;25.73;;;11.95;;
49738;SDS011;53662;50.114;8.626;2022-10-31T12:11:27;22.70;;;11.43;;
49738;SDS011;53662;50.114;8.626;2022-10-31T12:14:16;22.38;;;11.15;;
49738;SDS011;53662;50.114;8.626;2022-10-31T12:16:48;42.30;;;12.55;;
49738;SDS011;53662;50.114;8.626;2022-10-31T12:19:25;19.80;;;10.45;;
49738;SDS011;53662;50.114;8.626;2022-10-31T12:37:45;16.67;;;9.63;;
49738;SDS011;53662;50.114;8.626;2022-10-31T12:42:47;23.27;;;10.18;;
49738;SDS011;53662;50.114;8.626;2022-10-31T12:45:34;20.40;;;9.80;;
49738;SDS011;53662;50.114;8.626;2022-10-31T12:48:06;17.98;;;9.07;;
49738;SDS011;53662;50.114;8.626;2022-10-31T12:50:50;24.00;;;10.18;;
49738;SDS011;53662;50.114;8.626;2022-10-31T12:55:55;20.85;;;9.25;;
49738;SDS011;53662;50.114;8.626;2022-10-31T12:58:32;27.48;;;10.75;;
49738;SDS011;53662;50.114;8.626;2022-10-31T13:01:07;23.10;;;9.98;;
49738;SDS011;53662;50.114;8.626;2022-10-31T13:03:43;18.02;;;9.95;;
49738;SDS011;53662;50.114;8.626;2022-10-31T13:06:17;15.75;;;8.82;;
49738;SDS011;53662;50.114;8.626;2022-10-31T13:08:46;19.73;;;8.73;;
49738;SDS011;53662;50.114;8.626;2022-10-31T13:11:15;19.02;;;9.00;;
49738;SDS011;53662;50.114;8.626;2022-10-31T13:18:57;31.20;;;8.43;;
49738;SDS011;53662;50.114;8.626;2022-10-31T13:21:30;18.45;;;7.88;;
49738;SDS011;53662;50.114;8.626;2022-10-31T13:23:57;18.95;;;6.90;;
49738;SDS011;53662;50.114;8.626;2022-10-31T13:31:49;18.23;;;6.95;;
49738;SDS011;53662;50.114;8.626;2022-10-31T13:36:53;21.23;;;7.68;;
49738;SDS011;53662;50.114;8.626;2022-10-31T13:44:41;19.00;;;6.82;;
49738;SDS011;53662;50.114;8.626;2022-10-31T13:47:26;25.27;;;7.15;;
49738;SDS011;53662;50.114;8.626;2022-10-31T13:50:03;31.30;;;6.72;;
49738;SDS011;53662;50.114;8.626;2022-10-31T13:52:30;23.80;;;7.93;;
49738;SDS011;53662;50.114;8.626;2022-10-31T13:54:56;21.23;;;6.90;;
49738;SDS011;53662;50.114;8.626;2022-10-31T13:57:25;14.93;;;6.03;;
49738;SDS011;53662;50.114;8.626;2022-10-31T14:02:43;15.30;;;6.35;;
49738;SDS011;53662;50.114;8.626;2022-10-31T14:05:29;26.92;;;7.40;;
49738;SDS011;53662;50.114;8.626;2022-10-31T14:07:56;33.53;;;7.03;;
49738;SDS011;53662;50.114;8.626;2022-10-31T14:10:27;22.85;;;7.50;;
49738;SDS011;53662;50.114;8.626;2022-10-31T14:13:04;38.08;;;9.05;;
49738;SDS011;53662;50.114;8.626;2022-10-31T14:15:30;16.42;;;7.32;;
49738;SDS011;53662;50.114;8.626;2022-10-31T14:20:31;20.65;;;6.78;;
49738;SDS011;53662;50.114;8.626;2022-10-31T14:22:58;22.33;;;6.50;;
49738;SDS011;53662;50.114;8.626;2022-10-31T14:25:34;41.47;;;8.73;;
49738;SDS011;53662;50.114;8.626;2022-10-31T14:28:02;31.30;;;6.93;;
49738;SDS011;53662;50.114;8.626;2022-10-31T14:30:28;17.25;;;6.82;;
49738;SDS011;53662;50.114;8.626;2022-10-31T14:32:57;15.63;;;5.88;;
49738;SDS011;53662;50.114;8.626;2022-10-31T14:35:27;26.48;;;7.22;;
49738;SDS011;53662;50.114;8.626;2022-10-31T14:40:47;20.27;;;6.20;;
49738;SDS011;53662;50.114;8.626;2022-10-31T14:45:46;28.35;;;6.88;;
49738;SDS011;53662;50.114;8.626;2022-10-31T14:48:24;17.83;;;6.45;;
49738;SDS011;53662;50.114;8.626;2022-10-31T14:50:55;20.10;;;6.15;;
49738;SDS011;53662;50.114;8.626;2022-10-31T14:56:11;20.95;;;6.32;;
49738;SDS011;53662;50.114;8.626;2022-10-31T14:58:41;15.48;;;5.68;;
49738;SDS011;53662;50.114;8.626;2022-10-31T15:01:26;15.73;;;5.95;;
49738;SDS011;53662;50.114;8.626;2022-10-31T15:03:53;23.92;;;6.25;;
49738;SDS011;53662;50.114;8.626;2022-10-31T15:06:21;24.73;;;6.95;;
49738;SDS011;53662;50.114;8.626;2022-10-31T15:08:49;13.95;;;5.95;;
49738;SDS011;53662;50.114;8.626;2022-10-31T15:11:19;22.58;;;5.60;;
49738;SDS011;53662;50.114;8.626;2022-10-31T15:13:46;13.27;;;5.50;;
49738;SDS011;53662;50.114;8.626;2022-10-31T15:16:14;29.02;;;7.28;;
49738;SDS011;53662;50.114;8.626;2022-10-31T15:18:46;16.20;;;7.22;;
49738;SDS011;53662;50.114;8.626;2022-10-31T15:21:14;15.77;;;6.30;;
49738;SDS011;53662;50.114;8.626;2022-10-31T15:23:40;22.60;;;6.35;;
49738;SDS011;53662;50.114;8.626;2022-10-31T15:26:11;12.77;;;5.15;;
49738;SDS011;53662;50.114;8.626;2022-10-31T15:28:38;25.43;;;5.77;;
49738;SDS011;53662;50.114;8.626;2022-10-31T15:31:04;16.08;;;5.88;;
49738;SDS011;53662;50.114;8.626;2022-10-31T15:33:39;22.90;;;6.00;;
49738;SDS011;53662;50.114;8.626;2022-10-31T15:36:05;39.00;;;6.07;;
49738;SDS011;53662;50.114;8.626;2022-10-31T15:38:32;16.15;;;5.45;;
49738;SDS011;53662;50.114;8.626;2022-10-31T15:41:02;22.23;;;5.63;;
49738;SDS011;53662;50.114;8.626;2022-10-31T15:43:31;60.55;;;7.72;;
49738;SDS011;53662;50.114;8.626;2022-10-31T15:45:58;36.80;;;9.30;;
49738;SDS011;53662;50.114;8.626;2022-10-31T15:48:25;33.65;;;7.40;;
49738;SDS011;53662;50.114;8.626;2022-10-31T15:50:52;19.77;;;6.45;;
49738;SDS011;53662;50.114;8.626;2022-10-31T15:53:22;21.15;;;6.97;;
49738;SDS011;53662;50.114;8.626;2022-10-31T15:56:00;23.17;;;6.53;;
49738;SDS011;53662;50.114;8.626;2022-10-31T15:58:26;15.63;;;6.10;;
49738;SDS011;53662;50.114;8.626;2022-10-31T16:00:57;14.05;;;6.00;;
49738;SDS011;53662;50.114;8.626;2022-10-31T16:03:24;15.20;;;6.63;;
49738;SDS011;53662;50.114;8.626;2022-10-31T16:05:58;21.02;;;6.22;;
49738;SDS011;53662;50.114;8.626;2022-10-31T16:08:25;44.90;;;7.93;;
49738;SDS011;53662;50.114;8.626;2022-10-31T16:10:52;42.50;;;9.90;;
49738;SDS011;53662;50.114;8.626;2022-10-31T16:13:20;32.72;;;7.47;;
49738;SDS011;53662;50.114;8.626;2022-10-31T16:15:49;35.08;;;7.90;;
49738;SDS011;53662;50.114;8.626;2022-10-31T16:18:17;39.28;;;7.38;;